Airfield :
LOGIN :

Register | Disclaimer

   EN    FR    IT 

 










Legend :    VFR   Marginal VFR   IFR   Intensive IFR   Very Intensive IFR
Visi :
Ceiling :
>= 8 km
>= 3000ft
5 to 8 km
1000 to 3000 ft
1500m to 5 km
500 to 1000 ft
800 to 1500m
200 to 500 ft
< 800m
< 200 ft
Symbols :   Thunderstorms  Fog  Heavy snow  Heavy precipitations  Wind > 20 kt
SIGMETs :     Misc.  Thunderstorms  Icing  Turbulence  Mountain Waves  Volcanic Ashes







- Airport Elevation : 117 ft
- IATA code : NWI
- Download approach charts


EGSH - Norwich

CURRENT METAR :
  • 201920Z 25006KT 9999 SCT040 18/16 Q1011

EXPIRED METARs :
  • 201850Z 25007KT 9999 FEW034 18/16 Q1010
  • 201820Z 23007KT 9999 -SHRA FEW029 SCT039 17/16 Q1010 RESHRA
  • 201750Z 26005KT 230V290 9999 VCSH FEW029 SCT044 18/16 Q1009
  • 201720Z 27009KT 9999 VCTS -RA SCT030CB 17/16 Q1009 RETS RERA BECMG NSW
  • 201650Z 30010KT 270V330 9999 VCTS FEW025CB SCT044 19/15 Q1008 TEMPO 3000 +SHRA

TAF TAF EGSH
Valid from the 20 at 18:00 until the 21 at 00:00 UTC


201656Z 2018/2024 26007KT 9999 SCT040
ATIS : +44 1603 420 640
No reported NOTAMs for that airfield.



MET'MAP, your aeronautical weather chart ! - Copyright ORBIFLY December 2007 - Disclaimer

ORBIFLY MET'MAP TEAM :

Programming & Development : Alexandra Zaïnal
Concept & Development : Baudouin d'Aumeries
Co-Development & Prog : Marc-Olivier Méhu
Technical & hardware support : Manuel Goepfert

Contact : metmap@orbifly.com




SOURCES & CREDITS :

   NOAA